Capitan Miranda — CWBE — position and weather

sailwx.info

Track history (hours):
 
Tides and Currents Weather Stations Pressure Air Temp Water Temp Dewpoint Dewpoint Depression Visibility Wind Speed Wind Dir Waves Ship Positions

Capitan Miranda (Uruguay)

Staysail schooner. Training ship for Uruguayan Navy.

Last reported at 2020-Jan-24 20:27 UTC. Time now 2020-Jan-25 01:22 UTC.
Position S 34°57' W 055°19'.

; draft 3.8 m.

Type: Ship. MMSI: 770576100.

Date/timePositionNaut miles runAvg speedWind from/ knotsBaromVisibWave heightAir tempDewpointWater temp
2020-Jan-24 20:27S 34°57' W 055°19'5 9.8
2020-Jan-24 19:58S 34°58' W 055°25'33 8.3
2020-Jan-24 16:00S 34°58' W 056°05'7 7.4
2020-Jan-24 15:00S 34°56' W 056°14'2 1.8
2020-Jan-24 14:00S 34°54' W 056°13'0 0.0
2020-Jan-23 12:30S 34°54' W 056°13'0 0.0
2020-Jan-23 11:00S 34°54' W 056°13'0 0.0
2020-Jan-23 10:00S 34°54' W 056°13'0 0.0
2020-Jan-23 06:00S 34°54' W 056°13'0 0.0
2020-Jan-23 05:31S 34°54' W 056°13'0 0.0
2020-Jan-22 19:00S 34°54' W 056°13'0 0.0
2020-Jan-22 15:01S 34°54' W 056°13'  
2020-Jan-19 21:01S 34°54' W 056°13'16 7.9
2020-Jan-19 19:00S 34°57' W 055°54'3 6.6
2020-Jan-19 18:30S 34°56' W 055°50'14 6.9
2020-Jan-19 16:29S 34°52' W 055°34'31 1.9
2020-Jan-19 00:08S 34°57' W 054°57'55 1.7
2020-Jan-17 14:58S 34°57' W 056°04'8 2.2
2020-Jan-17 11:30S 34°54' W 056°13'  
Track history (hours):
 
Tides and Currents Weather Stations Pressure Air Temp Water Temp Dewpoint Dewpoint Depression Visibility Wind Speed Wind Dir Waves Ship Positions

Capitan Miranda (Uruguay)

Staysail schooner. Training ship for Uruguayan Navy.

Last reported at 2020-Jan-24 20:27 UTC. Time now 2020-Jan-25 01:22 UTC.
Position S 34°57' W 055°19'.

; draft 3.8 m.

Type: Ship. MMSI: 770576100.

Date/timePositionNaut miles runAvg speedWind from/ knotsBaromVisibWave heightAir tempDewpointWater temp
2020-Jan-24 20:27S 34°57' W 055°19'5 9.8
2020-Jan-24 19:58S 34°58' W 055°25'33 8.3
2020-Jan-24 16:00S 34°58' W 056°05'7 7.4
2020-Jan-24 15:00S 34°56' W 056°14'2 1.8
2020-Jan-24 14:00S 34°54' W 056°13'0 0.0
2020-Jan-23 12:30S 34°54' W 056°13'0 0.0
2020-Jan-23 11:00S 34°54' W 056°13'0 0.0
2020-Jan-23 10:00S 34°54' W 056°13'0 0.0
2020-Jan-23 06:00S 34°54' W 056°13'0 0.0
2020-Jan-23 05:31S 34°54' W 056°13'0 0.0
2020-Jan-22 19:00S 34°54' W 056°13'0 0.0
2020-Jan-22 15:01S 34°54' W 056°13'  
2020-Jan-19 21:01S 34°54' W 056°13'16 7.9
2020-Jan-19 19:00S 34°57' W 055°54'3 6.6
2020-Jan-19 18:30S 34°56' W 055°50'14 6.9
2020-Jan-19 16:29S 34°52' W 055°34'31 1.9
2020-Jan-19 00:08S 34°57' W 054°57'55 1.7
2020-Jan-17 14:58S 34°57' W 056°04'8 2.2
2020-Jan-17 11:30S 34°54' W 056°13'  

Dump ship's entire track history